Time;durP1;ratioP1;P1;durP2;ratioP2;P2;SDS_P1;SDS_P2;PMS_P1;PMS_P2;Temp;Humidity;BMP_temperature;BMP_pressure;BME280_temperature;BME280_humidity;BME280_pressure;Samples;Min_cycle;Max_cycle;Signal;HPM_P1;HPM_P2
2023/03/18 00:00:42;;;;;;;;;5.25;5.25;;;;;;;;5066709;28;62183;-84
2023/03/18 00:03:07;;;;;;;;;8.50;6.50;;;;;;;;5085333;27;61980;-83
2023/03/18 00:05:33;;;;;;;;;9.25;6.25;;;;;;;;5084782;27;61975;-83
2023/03/18 00:07:59;;;;;;;;;8.25;6.75;;;;;;;;5084707;27;61928;-83
2023/03/18 00:10:24;;;;;;;;;10.00;8.75;;;;;;;;5085326;28;61893;-83
2023/03/18 00:12:49;;;;;;;;;11.25;8.25;;;;;;;;5066787;28;61968;-83
2023/03/18 00:15:17;;;;;;;;;10.00;9.75;;;;;;;;5084594;28;61808;-83
2023/03/18 00:17:42;;;;;;;;;8.25;8.25;;;;;;;;5084877;27;61682;-83
2023/03/18 00:20:08;;;;;;;;;8.50;7.00;;;;;;;;5066759;27;61747;-83
2023/03/18 00:22:34;;;;;;;;;8.00;6.75;;;;;;;;5085092;27;61905;-83
2023/03/18 00:25:00;;;;;;;;;11.25;10.00;;;;;;;;5066002;28;63782;-83
2023/03/18 00:27:26;;;;;;;;;6.75;5.00;;;;;;;;5066705;28;61891;-84
2023/03/18 00:29:51;;;;;;;;;8.25;8.00;;;;;;;;5085075;27;61699;-83
2023/03/18 00:32:16;;;;;;;;;10.50;9.00;;;;;;;;5084360;28;62202;-83
2023/03/18 00:34:42;;;;;;;;;13.50;9.50;;;;;;;;5061972;28;63936;-83
2023/03/18 00:37:07;;;;;;;;;8.50;7.25;;;;;;;;5064072;28;62167;-83
2023/03/18 00:39:32;;;;;;;;;8.75;8.50;;;;;;;;5063235;28;61817;-83
2023/03/18 00:42:00;;;;;;;;;7.25;7.00;;;;;;;;5063056;28;61779;-83
2023/03/18 00:44:26;;;;;;;;;8.50;8.00;;;;;;;;5063601;28;62918;-83
2023/03/18 00:46:51;;;;;;;;;10.50;7.00;;;;;;;;5062562;28;61803;-83
2023/03/18 00:49:16;;;;;;;;;9.50;8.25;;;;;;;;5063011;28;62181;-83
2023/03/18 00:51:42;;;;;;;;;9.00;9.00;;;;;;;;5064161;28;62448;-83
2023/03/18 00:54:09;;;;;;;;;13.50;8.50;;;;;;;;5062161;28;63962;-83
2023/03/18 00:56:36;;;;;;;;;7.50;7.00;;;;;;;;5062799;28;61928;-83
2023/03/18 00:59:01;;;;;;;;;7.50;7.50;;;;;;;;5062624;28;61872;-83
2023/03/18 01:01:27;;;;;;;;;5.50;1.75;;;;;;;;5061829;28;62173;-83
2023/03/18 01:03:53;;;;;;;;;7.00;6.50;;;;;;;;5061858;28;63655;-83
2023/03/18 01:06:21;;;;;;;;;8.25;8.00;;;;;;;;5063860;28;61908;-83
2023/03/18 01:08:47;;;;;;;;;4.75;3.00;;;;;;;;5062736;28;61789;-83
2023/03/18 01:11:13;;;;;;;;;12.00;9.75;;;;;;;;5063020;28;61838;-83
2023/03/18 01:13:39;;;;;;;;;9.25;9.00;;;;;;;;5063147;28;61798;-83
2023/03/18 01:16:05;;;;;;;;;8.00;7.50;;;;;;;;5062617;28;61898;-83
2023/03/18 01:18:30;;;;;;;;;9.25;7.00;;;;;;;;5062323;28;61799;-83
2023/03/18 01:20:56;;;;;;;;;11.75;8.00;;;;;;;;5062548;28;62155;-82
2023/03/18 01:23:22;;;;;;;;;8.75;7.75;;;;;;;;5063074;28;63232;-82
2023/03/18 01:25:47;;;;;;;;;7.00;7.00;;;;;;;;5062318;28;61998;-82
2023/03/18 01:28:13;;;;;;;;;6.25;6.25;;;;;;;;5063892;28;62182;-83
2023/03/18 01:30:38;;;;;;;;;8.50;7.75;;;;;;;;5063427;28;61889;-83
2023/03/18 01:33:06;;;;;;;;;9.75;6.75;;;;;;;;5062960;28;64742;-82
2023/03/18 01:35:33;;;;;;;;;9.50;5.00;;;;;;;;5083768;28;61904;-83
2023/03/18 01:37:58;;;;;;;;;7.25;6.00;;;;;;;;5083921;27;61699;-83
2023/03/18 01:40:24;;;;;;;;;9.00;8.00;;;;;;;;5065590;28;61941;-83
2023/03/18 01:42:58;;;;;;;;;6.75;3.00;;;;;;;;5064582;28;64935;-83
2023/03/18 01:45:27;;;;;;;;;11.50;5.50;;;;;;;;5083876;28;61718;-83
2023/03/18 01:47:53;;;;;;;;;12.50;6.50;;;;;;;;5064918;28;62250;-83
2023/03/18 01:50:20;;;;;;;;;6.00;4.00;;;;;;;;5083561;27;61864;-82
2023/03/18 01:52:47;;;;;;;;;5.00;5.00;;;;;;;;5064379;27;64000;-83
2023/03/18 01:55:15;;;;;;;;;7.75;7.00;;;;;;;;5065430;28;61801;-83
2023/03/18 01:57:41;;;;;;;;;9.50;8.00;;;;;;;;5083639;27;61871;-83
2023/03/18 02:00:10;;;;;;;;;11.00;4.00;;;;;;;;5083172;28;62053;-83
2023/03/18 02:02:38;;;;;;;;;6.25;6.25;;;;;;;;5082544;28;62434;-82
2023/03/18 02:05:06;;;;;;;;;10.00;7.75;;;;;;;;5065133;28;61734;-83
2023/03/18 02:07:33;;;;;;;;;11.50;8.50;;;;;;;;5083301;28;61994;-83
2023/03/18 02:09:59;;;;;;;;;11.25;9.00;;;;;;;;5065327;28;62066;-83
2023/03/18 02:12:27;;;;;;;;;8.00;8.00;;;;;;;;5064108;28;63946;-82
2023/03/18 02:14:52;;;;;;;;;8.25;7.00;;;;;;;;5064992;27;62045;-82
2023/03/18 02:17:20;;;;;;;;;12.25;6.50;;;;;;;;5082705;28;61776;-83
2023/03/18 02:20:04;;;;;;;;;7.25;7.00;;;;;;;;5065125;28;61874;-83
2023/03/18 02:22:32;;;;;;;;;7.50;7.50;;;;;;;;5064046;28;65140;-83
2023/03/18 02:25:06;;;;;;;;;10.25;7.75;;;;;;;;5083233;27;61959;-83
2023/03/18 02:27:34;;;;;;;;;7.25;6.00;;;;;;;;5083120;28;62226;-83
2023/03/18 02:30:02;;;;;;;;;11.00;7.25;;;;;;;;5064789;28;61700;-83
2023/03/18 02:32:29;;;;;;;;;7.50;6.00;;;;;;;;5063485;28;64601;-83
2023/03/18 02:34:55;;;;;;;;;8.75;7.75;;;;;;;;5078256;28;61873;-83
2023/03/18 02:37:37;;;;;;;;;10.75;7.00;;;;;;;;5064576;28;61868;-82
2023/03/18 02:40:16;;;;;;;;;7.50;7.50;;;;;;;;5064832;28;61944;-82
2023/03/18 02:42:42;;;;;;;;;4.25;4.25;;;;;;;;5064007;28;65209;-83
2023/03/18 02:45:12;;;;;;;;;7.00;7.00;;;;;;;;5082749;27;62427;-83
2023/03/18 02:47:39;;;;;;;;;6.50;6.50;;;;;;;;5082226;28;61978;-83
2023/03/18 02:50:05;;;;;;;;;5.00;4.50;;;;;;;;5083202;27;61951;-83
2023/03/18 02:52:30;;;;;;;;;5.00;2.50;;;;;;;;5063781;28;63969;-83
2023/03/18 02:54:58;;;;;;;;;4.75;4.50;;;;;;;;5064258;28;61729;-83
2023/03/18 02:57:23;;;;;;;;;9.00;5.00;;;;;;;;5082652;28;61761;-83
2023/03/18 02:59:48;;;;;;;;;3.75;3.75;;;;;;;;5064362;28;62017;-83
2023/03/18 03:02:13;;;;;;;;;5.50;4.50;;;;;;;;5063028;28;63784;-83
2023/03/18 03:04:39;;;;;;;;;7.00;4.00;;;;;;;;5082598;28;61659;-83
2023/03/18 03:07:04;;;;;;;;;4.25;4.00;;;;;;;;5082556;28;61772;-83
2023/03/18 03:09:29;;;;;;;;;7.75;4.75;;;;;;;;5064444;28;61824;-83
2023/03/18 03:11:55;;;;;;;;;3.75;3.75;;;;;;;;5081890;28;63067;-83
2023/03/18 03:14:20;;;;;;;;;2.25;2.25;;;;;;;;5064131;28;61783;-83
2023/03/18 03:16:46;;;;;;;;;3.25;2.75;;;;;;;;5063395;28;61927;-83
2023/03/18 03:19:11;;;;;;;;;2.25;2.25;;;;;;;;5064539;28;61888;-83
2023/03/18 03:21:37;;;;;;;;;4.75;3.50;;;;;;;;5081605;28;62074;-83
2023/03/18 03:24:03;;;;;;;;;3.50;3.50;;;;;;;;5082350;28;61706;-83
2023/03/18 03:26:29;;;;;;;;;2.75;1.75;;;;;;;;5067827;28;61896;-83
2023/03/18 03:28:54;;;;;;;;;4.00;4.00;;;;;;;;5067491;28;62118;-82
2023/03/18 03:31:20;;;;;;;;;1.50;1.50;;;;;;;;5084865;27;61788;-83
2023/03/18 03:33:46;;;;;;;;;3.00;3.00;;;;;;;;5066586;28;62379;-83
2023/03/18 03:36:13;;;;;;;;;3.00;2.00;;;;;;;;5067754;28;62263;-82
2023/03/18 03:38:38;;;;;;;;;6.75;2.00;;;;;;;;5067234;28;61818;-83
2023/03/18 03:41:04;;;;;;;;;2.50;2.25;;;;;;;;5067008;28;63813;-83
2023/03/18 03:43:29;;;;;;;;;4.50;3.00;;;;;;;;5067271;28;61933;-83
2023/03/18 03:45:55;;;;;;;;;3.75;2.50;;;;;;;;5085196;28;61784;-83
2023/03/18 03:48:21;;;;;;;;;3.25;3.00;;;;;;;;5067171;28;61814;-83
2023/03/18 03:50:46;;;;;;;;;3.00;1.25;;;;;;;;5066696;28;64465;-83
2023/03/18 03:53:12;;;;;;;;;3.00;3.00;;;;;;;;5085496;27;61967;-83
2023/03/18 03:55:37;;;;;;;;;2.00;1.25;;;;;;;;5067268;27;62038;-83
2023/03/18 03:58:08;;;;;;;;;4.25;3.00;;;;;;;;5067126;28;62053;-82
2023/03/18 04:00:33;;;;;;;;;2.75;2.75;;;;;;;;5084551;27;62107;-83
2023/03/18 04:02:59;;;;;;;;;3.75;3.00;;;;;;;;5066343;27;61965;-83
2023/03/18 04:05:24;;;;;;;;;5.50;3.00;;;;;;;;5067076;28;61742;-82
2023/03/18 04:07:50;;;;;;;;;2.75;2.50;;;;;;;;5067172;28;61838;-82
2023/03/18 04:10:16;;;;;;;;;3.00;3.00;;;;;;;;5066298;27;63616;-82
2023/03/18 04:12:44;;;;;;;;;3.00;3.00;;;;;;;;5066775;28;61826;-82
2023/03/18 04:15:10;;;;;;;;;2.00;2.00;;;;;;;;5066646;28;61887;-82
2023/03/18 04:17:35;;;;;;;;;1.75;1.75;;;;;;;;5085021;27;61800;-82
2023/03/18 04:20:04;;;;;;;;;4.50;4.50;;;;;;;;5084549;27;61737;-82
2023/03/18 04:22:29;;;;;;;;;3.00;3.00;;;;;;;;5066960;28;62209;-82
2023/03/18 04:24:54;;;;;;;;;4.75;2.50;;;;;;;;5066938;28;61987;-82
2023/03/18 04:27:21;;;;;;;;;4.75;3.25;;;;;;;;5066836;28;62228;-82
2023/03/18 04:29:46;;;;;;;;;2.00;2.00;;;;;;;;5084087;27;62980;-82
2023/03/18 04:32:12;;;;;;;;;2.00;2.00;;;;;;;;5065837;28;61924;-82
2023/03/18 04:34:37;;;;;;;;;3.50;3.00;;;;;;;;5066230;28;61866;-82
2023/03/18 04:37:02;;;;;;;;;2.00;2.00;;;;;;;;5066710;28;61884;-82
2023/03/18 04:39:28;;;;;;;;;3.00;2.50;;;;;;;;5065767;27;64021;-83
2023/03/18 04:41:55;;;;;;;;;2.75;2.75;;;;;;;;5085016;28;62030;-82
2023/03/18 04:44:21;;;;;;;;;2.00;2.00;;;;;;;;5084616;27;61873;-83
2023/03/18 04:46:46;;;;;;;;;1.25;1.25;;;;;;;;5066302;28;62035;-82
2023/03/18 04:49:11;;;;;;;;;3.25;3.00;;;;;;;;5065802;28;64525;-82
2023/03/18 04:51:37;;;;;;;;;2.25;2.00;;;;;;;;5065901;28;62057;-82
2023/03/18 04:54:02;;;;;;;;;2.25;2.25;;;;;;;;5066505;27;61872;-83
2023/03/18 04:56:28;;;;;;;;;3.50;2.00;;;;;;;;5084442;28;61798;-82
2023/03/18 04:58:53;;;;;;;;;2.25;1.75;;;;;;;;5083496;28;62018;-83
2023/03/18 05:01:19;;;;;;;;;1.00;1.00;;;;;;;;5066261;28;61930;-83
2023/03/18 05:03:44;;;;;;;;;2.25;2.25;;;;;;;;5065556;27;61803;-83
2023/03/18 05:06:15;;;;;;;;;4.25;4.00;;;;;;;;5066370;28;61808;-82
2023/03/18 05:08:41;;;;;;;;;3.00;1.00;;;;;;;;5065472;28;63895;-83
2023/03/18 05:11:06;;;;;;;;;2.50;2.00;;;;;;;;5084254;27;61697;-82
2023/03/18 05:13:31;;;;;;;;;1.50;1.50;;;;;;;;5084196;27;62389;-82
2023/03/18 05:15:58;;;;;;;;;2.00;1.75;;;;;;;;5084698;27;61981;-83
2023/03/18 05:18:23;;;;;;;;;5.00;3.50;;;;;;;;5083325;27;62722;-83
2023/03/18 05:20:48;;;;;;;;;2.50;1.50;;;;;;;;5065719;27;62398;-83
2023/03/18 05:23:15;;;;;;;;;2.75;1.00;;;;;;;;5065830;28;62181;-83
2023/03/18 05:25:40;;;;;;;;;1.25;1.00;;;;;;;;5084182;27;62027;-83
2023/03/18 05:28:06;;;;;;;;;2.25;1.50;;;;;;;;5064874;28;64937;-83
2023/03/18 05:30:31;;;;;;;;;1.00;1.00;;;;;;;;5065706;28;61817;-83
2023/03/18 05:32:57;;;;;;;;;3.00;1.75;;;;;;;;5083314;27;62314;-83
2023/03/18 05:35:22;;;;;;;;;2.00;1.00;;;;;;;;5083775;28;61860;-82
2023/03/18 05:37:47;;;;;;;;;1.50;1.50;;;;;;;;5064864;28;64840;-82
2023/03/18 05:40:13;;;;;;;;;3.00;2.00;;;;;;;;5065378;28;62054;-82
2023/03/18 05:42:39;;;;;;;;;1.00;1.00;;;;;;;;5065654;28;61922;-83
2023/03/18 05:45:06;;;;;;;;;1.75;1.00;;;;;;;;5065577;28;62392;-83
2023/03/18 05:47:33;;;;;;;;;1.75;1.75;;;;;;;;5082181;28;61950;-83
2023/03/18 05:50:00;;;;;;;;;1.00;1.00;;;;;;;;5083562;27;62113;-82
2023/03/18 05:52:25;;;;;;;;;5.50;1.00;;;;;;;;5065353;28;61887;-83
2023/03/18 05:54:51;;;;;;;;;1.25;1.00;;;;;;;;5065478;28;61945;-83
2023/03/18 05:57:16;;;;;;;;;1.75;1.75;;;;;;;;5064606;28;64099;-83
2023/03/18 05:59:42;;;;;;;;;2.50;2.00;;;;;;;;5065028;28;61765;-82
2023/03/18 06:02:08;;;;;;;;;1.50;1.25;;;;;;;;5082897;27;62014;-83
2023/03/18 06:04:33;;;;;;;;;1.50;1.50;;;;;;;;5083877;27;61619;-83
2023/03/18 06:07:00;;;;;;;;;2.50;2.00;;;;;;;;5064253;28;63966;-83
2023/03/18 06:09:25;;;;;;;;;1.00;1.00;;;;;;;;5083258;28;61698;-82
2023/03/18 06:11:51;;;;;;;;;0.25;0.25;;;;;;;;5083272;27;61853;-83
2023/03/18 06:14:17;;;;;;;;;3.00;2.00;;;;;;;;5064961;27;61896;-82
2023/03/18 06:16:42;;;;;;;;;2.75;2.25;;;;;;;;5082675;28;61938;-82
2023/03/18 06:19:09;;;;;;;;;2.00;2.00;;;;;;;;5066220;28;62206;-83
2023/03/18 06:21:35;;;;;;;;;3.00;2.25;;;;;;;;5083413;28;62265;-84
2023/03/18 06:24:01;;;;;;;;;4.00;2.00;;;;;;;;5064443;28;61954;-82
2023/03/18 06:26:26;;;;;;;;;3.25;2.00;;;;;;;;5064213;28;64568;-83
2023/03/18 06:28:51;;;;;;;;;2.00;2.00;;;;;;;;5082806;28;61756;-82
2023/03/18 06:31:17;;;;;;;;;2.75;2.75;;;;;;;;5083015;28;61828;-82
2023/03/18 06:33:42;;;;;;;;;2.00;2.00;;;;;;;;5064192;28;62057;-82
2023/03/18 06:36:09;;;;;;;;;4.50;3.25;;;;;;;;5082195;27;61924;-83
2023/03/18 06:38:34;;;;;;;;;3.25;2.00;;;;;;;;5064895;28;61794;-81
2023/03/18 06:41:00;;;;;;;;;5.00;3.00;;;;;;;;5071320;28;61783;-81
2023/03/18 06:43:26;;;;;;;;;3.50;2.00;;;;;;;;5066030;28;61922;-84
2023/03/18 06:45:51;;;;;;;;;2.25;1.75;;;;;;;;5044117;28;64754;-83
2023/03/18 06:48:17;;;;;;;;;0.00;0.00;;;;;;;;5044181;28;61847;-84
2023/03/18 06:50:42;;;;;;;;;2.00;2.00;;;;;;;;5044422;28;62077;-83
2023/03/18 06:53:09;;;;;;;;;2.00;2.00;;;;;;;;5044459;28;62099;-83
2023/03/18 06:55:34;;;;;;;;;7.00;2.00;;;;;;;;5043445;28;64139;-83
2023/03/18 06:58:00;;;;;;;;;4.00;3.00;;;;;;;;5044595;28;61934;-82
2023/03/18 07:00:25;;;;;;;;;2.00;2.00;;;;;;;;5043040;28;61856;-81
2023/03/18 07:02:51;;;;;;;;;3.50;3.00;;;;;;;;5062116;28;62023;-83
2023/03/18 07:05:17;;;;;;;;;2.00;2.00;;;;;;;;5043676;28;64754;-82
2023/03/18 07:07:43;;;;;;;;;2.50;2.00;;;;;;;;5061880;28;61721;-83
2023/03/18 07:10:10;;;;;;;;;1.50;1.50;;;;;;;;5044159;28;61731;-82
2023/03/18 07:12:35;;;;;;;;;1.00;1.00;;;;;;;;5044219;28;62155;-82
2023/03/18 07:15:01;;;;;;;;;5.25;2.00;;;;;;;;5061528;28;61875;-82
2023/03/18 07:17:26;;;;;;;;;1.75;1.75;;;;;;;;5043511;28;61841;-82
2023/03/18 07:19:52;;;;;;;;;2.25;2.25;;;;;;;;5043991;28;61786;-84
2023/03/18 07:22:17;;;;;;;;;2.00;2.00;;;;;;;;5061722;28;61874;-82
2023/03/18 07:24:43;;;;;;;;;2.00;2.00;;;;;;;;5043190;28;63816;-81
2023/03/18 07:27:08;;;;;;;;;2.75;2.00;;;;;;;;5043775;28;61986;-81
2023/03/18 07:29:34;;;;;;;;;1.25;1.00;;;;;;;;5043631;28;62189;-79
2023/03/18 07:32:00;;;;;;;;;0.75;0.75;;;;;;;;5043531;28;62134;-79
2023/03/18 07:34:26;;;;;;;;;1.25;0.50;;;;;;;;5055698;28;63954;-82
2023/03/18 07:36:51;;;;;;;;;0.25;0.25;;;;;;;;5060188;28;61890;-83
2023/03/18 07:39:17;;;;;;;;;0.00;0.00;;;;;;;;5060836;28;62128;-83
2023/03/18 07:41:42;;;;;;;;;1.00;1.00;;;;;;;;5059174;28;62168;-83
2023/03/18 07:44:07;;;;;;;;;1.00;1.00;;;;;;;;5052812;28;61814;-80
2023/03/18 07:46:33;;;;;;;;;0.75;0.75;;;;;;;;5052405;28;61741;-80
2023/03/18 07:48:58;;;;;;;;;0.25;0.25;;;;;;;;5049470;28;62013;-81
2023/03/18 07:51:25;;;;;;;;;1.00;1.00;;;;;;;;5049942;28;62525;-83
2023/03/18 07:53:50;;;;;;;;;0.00;0.00;;;;;;;;5050989;28;63185;-83
2023/03/18 07:56:16;;;;;;;;;1.50;1.00;;;;;;;;5048949;28;61772;-83
2023/03/18 07:58:41;;;;;;;;;1.00;1.00;;;;;;;;5049107;28;61983;-83
2023/03/18 08:01:08;;;;;;;;;2.00;1.00;;;;;;;;5052146;28;61881;-83
2023/03/18 08:03:33;;;;;;;;;0.00;0.00;;;;;;;;5072934;28;64109;-83
2023/03/18 08:05:59;;;;;;;;;1.00;1.00;;;;;;;;5049592;28;62120;-84
2023/03/18 08:08:24;;;;;;;;;0.50;0.50;;;;;;;;5073523;28;62014;-83
2023/03/18 08:10:51;;;;;;;;;2.25;0.00;;;;;;;;5062031;28;61744;-84
2023/03/18 08:13:16;;;;;;;;;1.75;0.25;;;;;;;;5064805;28;61890;-84
2023/03/18 08:15:41;;;;;;;;;2.50;1.00;;;;;;;;5063585;28;62106;-84
2023/03/18 08:18:07;;;;;;;;;1.75;1.75;;;;;;;;5065215;28;61757;-85
2023/03/18 08:20:32;;;;;;;;;2.00;1.00;;;;;;;;5066925;28;62176;-84
2023/03/18 08:22:58;;;;;;;;;1.00;1.00;;;;;;;;5065543;28;61735;-84
2023/03/18 08:25:23;;;;;;;;;3.00;1.25;;;;;;;;5065209;28;61749;-84
2023/03/18 08:27:49;;;;;;;;;1.00;1.00;;;;;;;;5066151;28;62079;-84
2023/03/18 08:30:14;;;;;;;;;2.00;2.00;;;;;;;;5066267;28;61800;-83
2023/03/18 08:32:39;;;;;;;;;1.00;1.00;;;;;;;;5065222;28;61843;-83
2023/03/18 08:35:05;;;;;;;;;0.00;0.00;;;;;;;;5062761;28;61939;-82
2023/03/18 08:37:30;;;;;;;;;1.50;1.25;;;;;;;;5064341;28;61855;-82
2023/03/18 08:40:03;;;;;;;;;3.50;1.25;;;;;;;;5064789;28;61734;-82
2023/03/18 08:42:28;;;;;;;;;1.00;1.00;;;;;;;;5064076;28;61705;-82
2023/03/18 08:44:53;;;;;;;;;1.00;1.00;;;;;;;;5064083;28;61976;-83
2023/03/18 08:47:20;;;;;;;;;1.25;1.25;;;;;;;;5064041;28;61884;-82
2023/03/18 08:49:45;;;;;;;;;2.00;2.00;;;;;;;;5062955;28;61864;-83
2023/03/18 08:52:10;;;;;;;;;1.75;1.00;;;;;;;;5062193;28;63809;-83
2023/03/18 08:54:35;;;;;;;;;3.25;2.00;;;;;;;;5062847;28;61831;-83
2023/03/18 08:57:01;;;;;;;;;2.50;2.25;;;;;;;;5063527;28;61871;-82
2023/03/18 08:59:26;;;;;;;;;3.75;2.75;;;;;;;;5051679;28;61817;-83
2023/03/18 09:01:52;;;;;;;;;2.00;2.00;;;;;;;;5058013;28;63175;-86
2023/03/18 09:04:19;;;;;;;;;2.00;2.00;;;;;;;;5063416;28;62027;-84
2023/03/18 09:06:44;;;;;;;;;2.00;2.00;;;;;;;;5062677;28;61833;-84
2023/03/18 09:09:10;;;;;;;;;1.00;1.00;;;;;;;;5062127;28;62198;-84
2023/03/18 09:11:36;;;;;;;;;1.00;1.00;;;;;;;;5062389;28;64506;-83
2023/03/18 09:14:01;;;;;;;;;3.00;1.75;;;;;;;;5064014;28;61952;-83
2023/03/18 09:16:27;;;;;;;;;1.00;1.00;;;;;;;;5062618;28;61922;-84
2023/03/18 09:18:52;;;;;;;;;1.00;0.00;;;;;;;;5061248;28;62236;-84
2023/03/18 09:21:18;;;;;;;;;2.00;2.00;;;;;;;;5061319;28;62728;-83
2023/03/18 09:23:44;;;;;;;;;6.00;3.00;;;;;;;;5059707;28;62009;-83
2023/03/18 09:26:10;;;;;;;;;0.75;0.75;;;;;;;;5061145;28;62452;-85
2023/03/18 09:28:36;;;;;;;;;3.00;1.00;;;;;;;;5063266;28;62077;-83
2023/03/18 09:31:01;;;;;;;;;0.00;0.00;;;;;;;;5061815;28;63741;-83
2023/03/18 09:33:26;;;;;;;;;1.00;1.00;;;;;;;;5061139;28;61838;-83
2023/03/18 09:35:52;;;;;;;;;2.00;2.00;;;;;;;;5059542;28;62027;-83
2023/03/18 09:38:18;;;;;;;;;1.25;0.50;;;;;;;;5053998;28;61946;-83
2023/03/18 09:40:53;;;;;;;;;8.25;6.50;;;;;;;;5049225;28;64980;-84
2023/03/18 09:43:37;;;;;;;;;2.00;0.75;;;;;;;;5057160;28;62008;-84
2023/03/18 09:46:11;;;;;;;;;1.25;1.25;;;;;;;;5049257;28;61794;-84
2023/03/18 09:48:37;;;;;;;;;0.00;0.00;;;;;;;;5063920;28;61961;-83
2023/03/18 09:51:15;;;;;;;;;2.25;2.00;;;;;;;;5062120;28;63443;-85
2023/03/18 09:53:54;;;;;;;;;1.00;1.00;;;;;;;;5061275;28;61546;-86
2023/03/18 09:56:28;;;;;;;;;1.25;1.25;;;;;;;;5059421;28;61945;-85
2023/03/18 09:59:13;;;;;;;;;2.00;2.00;;;;;;;;5062939;28;62100;-85
2023/03/18 10:01:40;;;;;;;;;2.00;1.00;;;;;;;;5057917;28;63731;-85
2023/03/18 10:04:17;;;;;;;;;0.50;0.50;;;;;;;;5061559;28;61904;-86
2023/03/18 10:06:43;;;;;;;;;1.00;1.00;;;;;;;;5057784;28;61962;-86
2023/03/18 10:09:15;;;;;;;;;0.50;0.25;;;;;;;;5063790;28;61958;-85
2023/03/18 10:11:41;;;;;;;;;2.50;1.00;;;;;;;;5074106;28;63861;-84
2023/03/18 10:14:23;;;;;;;;;2.25;1.00;;;;;;;;5060772;28;62164;-84
2023/03/18 10:17:27;;;;;;;;;1.75;1.00;;;;;;;;5042542;28;61901;-84
2023/03/18 10:19:54;;;;;;;;;0.75;0.75;;;;;;;;5027842;28;62036;-84
2023/03/18 10:22:19;;;;;;;;;0.00;0.00;;;;;;;;5031412;28;63771;-84
2023/03/18 10:24:54;;;;;;;;;1.00;1.00;;;;;;;;5039193;28;61831;-85
2023/03/18 10:27:37;;;;;;;;;3.00;1.50;;;;;;;;5057991;28;61996;-85
2023/03/18 10:30:16;;;;;;;;;3.75;1.00;;;;;;;;5022557;28;61992;-84
2023/03/18 10:32:51;;;;;;;;;1.00;1.00;;;;;;;;5020202;28;63598;-83
2023/03/18 10:35:32;;;;;;;;;1.00;1.00;;;;;;;;5056139;28;62546;-81
2023/03/18 10:38:14;;;;;;;;;1.00;1.00;;;;;;;;5058316;28;62107;-82
2023/03/18 10:40:41;;;;;;;;;0.75;0.75;;;;;;;;5042172;28;62029;-83
2023/03/18 10:43:14;;;;;;;;;1.25;0.00;;;;;;;;5058831;28;63740;-83
2023/03/18 10:45:41;;;;;;;;;1.00;1.00;;;;;;;;5059848;28;61787;-84
2023/03/18 10:48:14;;;;;;;;;0.00;0.00;;;;;;;;5059448;28;61862;-84
2023/03/18 10:50:45;;;;;;;;;0.50;0.50;;;;;;;;5052592;28;61905;-82
2023/03/18 10:53:16;;;;;;;;;2.50;0.00;;;;;;;;5040765;28;63635;-82
2023/03/18 10:55:48;;;;;;;;;1.00;1.00;;;;;;;;5043284;28;61708;-83
2023/03/18 10:58:15;;;;;;;;;3.00;0.25;;;;;;;;5042034;28;61901;-82
2023/03/18 11:00:40;;;;;;;;;0.25;0.25;;;;;;;;5041895;28;61795;-83
2023/03/18 11:03:15;;;;;;;;;0.75;0.00;;;;;;;;5041112;28;64545;-83
2023/03/18 11:05:42;;;;;;;;;0.00;0.00;;;;;;;;5058473;28;61874;-83
2023/03/18 11:08:27;;;;;;;;;2.00;2.00;;;;;;;;5063793;28;61857;-83
2023/03/18 11:10:53;;;;;;;;;0.00;0.00;;;;;;;;5062575;28;61791;-82
2023/03/18 11:13:19;;;;;;;;;4.25;0.00;;;;;;;;5061343;28;61985;-83
2023/03/18 11:15:52;;;;;;;;;0.25;0.25;;;;;;;;5062273;28;61731;-83
2023/03/18 11:18:23;;;;;;;;;2.00;1.00;;;;;;;;5062171;28;62015;-82
2023/03/18 11:21:00;;;;;;;;;0.75;0.00;;;;;;;;5065396;28;61863;-82
2023/03/18 11:23:44;;;;;;;;;0.00;0.00;;;;;;;;5061233;28;63662;-83
2023/03/18 11:26:16;;;;;;;;;4.50;0.50;;;;;;;;5060756;28;62534;-82
2023/03/18 11:28:41;;;;;;;;;4.25;1.50;;;;;;;;5060365;28;61899;-82
2023/03/18 11:31:07;;;;;;;;;2.00;1.00;;;;;;;;5053080;28;61723;-83
2023/03/18 11:33:33;;;;;;;;;1.00;1.00;;;;;;;;5048318;28;63829;-80
2023/03/18 11:36:04;;;;;;;;;0.50;0.50;;;;;;;;5061449;28;62033;-81
2023/03/18 11:38:30;;;;;;;;;3.25;1.00;;;;;;;;5059457;28;61950;-81
2023/03/18 11:41:07;;;;;;;;;2.00;2.00;;;;;;;;5059339;28;62573;-81
2023/03/18 11:43:33;;;;;;;;;4.00;0.75;;;;;;;;5057251;28;62853;-81
2023/03/18 11:46:00;;;;;;;;;1.00;1.00;;;;;;;;5059775;28;61845;-84
2023/03/18 11:48:36;;;;;;;;;2.67;0.00;;;;;;;;5060713;28;61967;-82
2023/03/18 11:51:28;;;;;;;;;0.00;0.00;;;;;;;;5064066;28;61751;-85
2023/03/18 11:53:56;;;;;;;;;0.75;0.75;;;;;;;;5060422;28;64028;-82
2023/03/18 11:56:27;;;;;;;;;0.00;0.00;;;;;;;;5043062;28;61883;-83
2023/03/18 11:59:04;;;;;;;;;0.00;0.00;;;;;;;;5062483;28;61922;-81
2023/03/18 12:01:43;;;;;;;;;0.00;0.00;;;;;;;;5062864;28;62052;-81
2023/03/18 12:04:27;;;;;;;;;1.75;0.75;;;;;;;;5048053;28;61898;-82
2023/03/18 12:06:55;;;;;;;;;0.00;0.00;;;;;;;;5042683;28;61923;-82
2023/03/18 12:09:28;;;;;;;;;0.00;0.00;;;;;;;;5042025;28;61758;-82
2023/03/18 12:12:23;;;;;;;;;1.00;1.00;;;;;;;;5044152;28;61783;-82
2023/03/18 12:15:03;;;;;;;;;0.67;0.33;;;;;;;;5022519;28;64955;-83
2023/03/18 12:17:29;;;;;;;;;0.00;0.00;;;;;;;;5043258;28;61802;-82
2023/03/18 12:19:57;;;;;;;;;0.00;0.00;;;;;;;;5054844;28;61862;-84
2023/03/18 12:22:44;;;;;;;;;1.33;0.00;;;;;;;;5062187;28;62110;-84
2023/03/18 12:25:21;;;;;;;;;0.67;0.00;;;;;;;;5063755;28;62158;-82
2023/03/18 12:28:05;;;;;;;;;0.00;0.00;;;;;;;;5062074;28;61753;-84
2023/03/18 12:30:34;;;;;;;;;0.00;0.00;;;;;;;;5062803;28;62205;-84
2023/03/18 12:33:02;;;;;;;;;0.00;0.00;;;;;;;;5064831;28;62159;-84
2023/03/18 12:35:47;;;;;;;;;1.00;0.00;;;;;;;;5083620;27;62137;-85
2023/03/18 12:38:37;;;;;;;;;0.00;0.00;;;;;;;;5065248;28;61851;-82
2023/03/18 12:41:11;;;;;;;;;1.00;0.00;;;;;;;;5070160;27;62029;-82
2023/03/18 12:43:37;;;;;;;;;0.00;0.00;;;;;;;;5079895;28;61842;-83
2023/03/18 12:46:23;;;;;;;;;0.00;0.00;;;;;;;;5079012;27;62875;-82
2023/03/18 12:49:12;;;;;;;;;1.00;1.00;;;;;;;;5065910;27;62690;-83
2023/03/18 12:51:59;;;;;;;;;0.00;0.00;;;;;;;;5070512;27;62041;-83
2023/03/18 12:54:28;;;;;;;;;1.00;1.00;;;;;;;;5074530;28;62160;-83
2023/03/18 12:56:58;;;;;;;;;0.00;0.00;;;;;;;;5076626;28;63594;-83
2023/03/18 12:59:31;;;;;;;;;0.00;0.00;;;;;;;;5063720;28;62461;-82
2023/03/18 13:02:03;;;;;;;;;0.00;0.00;;;;;;;;5061275;28;62324;-83
2023/03/18 13:04:30;;;;;;;;;1.00;0.00;;;;;;;;5063907;28;62251;-85
2023/03/18 13:06:56;;;;;;;;;0.00;0.00;;;;;;;;5082569;28;62121;-84
2023/03/18 13:09:25;;;;;;;;;1.00;1.00;;;;;;;;5063817;28;61862;-83
2023/03/18 13:11:50;;;;;;;;;0.00;0.00;;;;;;;;5063665;28;61963;-83
2023/03/18 13:14:31;;;;;;;;;0.00;0.00;;;;;;;;5083427;28;61691;-85
2023/03/18 13:16:57;;;;;;;;;0.00;0.00;;;;;;;;5066162;28;63834;-84
2023/03/18 13:19:24;;;;;;;;;0.00;0.00;;;;;;;;5064417;28;62028;-84
2023/03/18 13:21:55;;;;;;;;;1.33;0.00;;;;;;;;5046883;28;61886;-82
2023/03/18 13:24:27;;;;;;;;;0.00;0.00;;;;;;;;5064080;28;62042;-82
2023/03/18 13:27:18;;;;;;;;;0.33;0.00;;;;;;;;5067273;27;62934;-81
2023/03/18 13:29:59;;;;;;;;;0.00;0.00;;;;;;;;5060131;28;61815;-86
2023/03/18 13:32:43;;;;;;;;;1.75;0.00;;;;;;;;5078041;28;62455;-84
2023/03/18 13:35:38;;;;;;;;;1.00;1.00;;;;;;;;5064322;28;61842;-87
2023/03/18 13:38:24;;;;;;;;;1.00;1.00;;;;;;;;5084171;28;61964;-86
2023/03/18 13:41:02;;;;;;;;;0.25;0.25;;;;;;;;5067748;28;61826;-87
2023/03/18 13:43:28;;;;;;;;;2.00;0.00;;;;;;;;5065756;28;61976;-85
2023/03/18 13:46:00;;;;;;;;;1.25;1.00;;;;;;;;5084891;28;61724;-86
2023/03/18 13:48:28;;;;;;;;;1.00;1.00;;;;;;;;5066400;28;64545;-86
2023/03/18 13:50:58;;;;;;;;;3.25;0.00;;;;;;;;5058570;28;62176;-85
2023/03/18 13:53:28;;;;;;;;;3.00;0.00;;;;;;;;5072600;28;61744;-85
2023/03/18 13:55:55;;;;;;;;;0.00;0.00;;;;;;;;5069127;28;61891;-81
2023/03/18 13:58:47;;;;;;;;;0.00;0.00;;;;;;;;5076307;28;62008;-84
2023/03/18 14:01:32;;;;;;;;;0.00;0.00;;;;;;;;5078622;27;62101;-84
2023/03/18 14:04:22;;;;;;;;;1.33;1.00;;;;;;;;5064649;28;61937;-82
2023/03/18 14:07:07;;;;;;;;;1.33;0.00;;;;;;;;4981025;28;61990;-82
2023/03/18 14:09:35;;;;;;;;;0.00;0.00;;;;;;;;4962003;28;61965;-84
2023/03/18 14:12:16;;;;;;;;;2.00;0.00;;;;;;;;4964204;28;62172;-83
2023/03/18 14:14:47;;;;;;;;;0.00;0.00;;;;;;;;4965051;28;62086;-84
2023/03/18 14:17:17;;;;;;;;;2.33;0.00;;;;;;;;4965406;28;62030;-84
2023/03/18 14:19:44;;;;;;;;;0.00;0.00;;;;;;;;4963971;28;63639;-86
2023/03/18 14:22:18;;;;;;;;;0.00;0.00;;;;;;;;4965880;28;61844;-84
2023/03/18 14:24:45;;;;;;;;;0.00;0.00;;;;;;;;4971904;28;61835;-83
2023/03/18 14:27:21;;;;;;;;;0.00;0.00;;;;;;;;4952292;28;62739;-83
2023/03/18 14:29:48;;;;;;;;;0.00;0.00;;;;;;;;4954271;28;63303;-83
2023/03/18 14:32:29;;;;;;;;;0.00;0.00;;;;;;;;4944748;28;61918;-82
2023/03/18 14:34:57;;;;;;;;;0.00;0.00;;;;;;;;4958232;28;62369;-84
2023/03/18 14:37:24;;;;;;;;;0.00;0.00;;;;;;;;4950047;28;62275;-82
2023/03/18 14:39:53;;;;;;;;;1.00;0.00;;;;;;;;4979745;28;62922;-82
2023/03/18 14:42:31;;;;;;;;;0.33;0.33;;;;;;;;4961687;28;61940;-81
2023/03/18 14:45:03;;;;;;;;;2.00;1.00;;;;;;;;5055071;28;62334;-81
2023/03/18 14:47:39;;;;;;;;;1.00;1.00;;;;;;;;5052558;28;61841;-81
2023/03/18 14:50:05;;;;;;;;;0.00;0.00;;;;;;;;5074898;27;63474;-81
2023/03/18 14:52:37;;;;;;;;;2.33;0.00;;;;;;;;5057609;28;61845;-82